Yale, Ohio
Current Conditions -  °F | °C
As of 4:38 PM on Saturday 25 Oct 2014 (Local Time) from KPOV Reporting Station
Scattered Clouds Scattered Clouds  
Wind Chill: 69°   Ceiling: Unl
Heat Index: 69°   Visibility: 10mi
Dew Point: 47°   Wind: 15mph
Humidity: 45%   Direction: 250°WSW
Pressure: 29.75"   Gusts: 20mph
Location:  41.0376°N, 81.0533°W
Report Text: KPOV 252038Z AUTO 25013G17KT 10SM SCT044 SCT050 20/08 A2975 RMK AO2 T02040082
Loading
Personal Weather Stations






























Interactive Weather Map
Tropical Storm Tracking
New forecast layout! Learn more

10-Day Weather Forecast

Advertisements
Track Severe Weather on mobile